createdAt,value
2022-11-17T00:01:52.959Z,100946.19
2022-11-17T00:04:26.163Z,100944.34
2022-11-17T00:06:56.999Z,100934.22
2022-11-17T00:09:29.965Z,100945.81
2022-11-17T00:12:22.459Z,100949.72
2022-11-17T00:14:54.462Z,100951.91
2022-11-17T00:17:25.802Z,100942.97
2022-11-17T00:20:14.795Z,100945.00
2022-11-17T00:22:45.574Z,100957.81
2022-11-17T00:25:16.737Z,100962.84
2022-11-17T00:27:47.648Z,100964.03
2022-11-17T00:30:38.300Z,100971.31
2022-11-17T00:33:28.764Z,100966.56
2022-11-17T00:35:59.360Z,100973.94
2022-11-17T00:38:30.220Z,100970.88
2022-11-17T00:41:01.329Z,100972.25
2022-11-17T00:43:31.719Z,100968.31
2022-11-17T00:46:02.581Z,100966.41
2022-11-17T00:48:36.286Z,100967.09
2022-11-17T00:51:07.953Z,100963.88
2022-11-17T00:53:38.510Z,100967.34
2022-11-17T00:56:11.916Z,100969.00
2022-11-17T00:58:42.388Z,100972.72
2022-11-17T01:01:13.492Z,100969.00
2022-11-17T01:03:44.632Z,100978.41
2022-11-17T01:06:21.279Z,100972.50
2022-11-17T01:08:53.124Z,100974.66
2022-11-17T01:11:23.926Z,100976.91
2022-11-17T01:13:58.211Z,100972.75
2022-11-17T01:16:30.419Z,100979.31
2022-11-17T01:19:04.395Z,100973.81
2022-11-17T01:21:35.848Z,100978.34
2022-11-17T01:24:07.021Z,100966.84
2022-11-17T01:26:38.480Z,100970.81
2022-11-17T01:29:10.120Z,100961.28
2022-11-17T01:31:44.350Z,100963.47
2022-11-17T01:34:15.187Z,100965.97
2022-11-17T01:37:04.945Z,100959.28
2022-11-17T01:39:35.560Z,100965.41
2022-11-17T01:42:11.600Z,100959.00
2022-11-17T01:44:56.283Z,100953.25
2022-11-17T01:47:56.583Z,100948.88
2022-11-17T01:50:41.493Z,100949.53
2022-11-17T01:53:16.334Z,100951.19
2022-11-17T01:55:53.247Z,100947.97
2022-11-17T01:58:30.317Z,100947.72
2022-11-17T02:01:00.684Z,100952.09
2022-11-17T02:03:35.484Z,100955.09
2022-11-17T02:06:25.766Z,100949.69
2022-11-17T02:08:56.810Z,100952.22
2022-11-17T02:11:27.738Z,100946.34
2022-11-17T02:13:58.947Z,100944.97
2022-11-17T02:16:29.244Z,100933.78
2022-11-17T02:18:59.938Z,100934.91
2022-11-17T02:21:54.082Z,100920.03
2022-11-17T02:24:38.697Z,100911.75
2022-11-17T02:27:27.293Z,100911.28
2022-11-17T02:30:05.381Z,100914.81
2022-11-17T02:32:54.143Z,100907.84
2022-11-17T02:35:36.696Z,100904.50
2022-11-17T02:38:25.040Z,100896.69
2022-11-17T02:41:31.041Z,100900.03
2022-11-17T02:44:26.389Z,100889.59
2022-11-17T02:47:03.364Z,100889.97
2022-11-17T02:49:41.659Z,100889.53
2022-11-17T02:52:12.319Z,100877.72
2022-11-17T02:54:43.171Z,100873.13
2022-11-17T02:57:30.496Z,100857.13
2022-11-17T03:00:05.583Z,100860.84
2022-11-17T03:02:52.586Z,100857.13
2022-11-17T03:06:00.706Z,100845.47
2022-11-17T03:08:52.006Z,100848.28
2022-11-17T03:11:30.001Z,100843.25
2022-11-17T03:14:11.316Z,100849.69
2022-11-17T03:17:11.655Z,100848.94
2022-11-17T03:20:09.276Z,100847.88
2022-11-17T03:22:56.994Z,100840.63
2022-11-17T03:25:32.916Z,100841.66
2022-11-17T03:28:07.770Z,100843.31
2022-11-17T03:30:41.006Z,100834.75
2022-11-17T03:33:21.124Z,100831.88
2022-11-17T03:36:02.969Z,100830.50
2022-11-17T03:38:39.054Z,100830.22
2022-11-17T03:41:11.146Z,100828.16
2022-11-17T03:43:42.649Z,100824.44
2022-11-17T03:46:16.498Z,100823.22
2022-11-17T03:49:02.100Z,100822.03
2022-11-17T03:51:34.445Z,100829.47
2022-11-17T03:54:05.662Z,100811.88
2022-11-17T03:56:45.545Z,100809.56
2022-11-17T03:59:22.543Z,100802.28
2022-11-17T04:01:53.661Z,100786.56
2022-11-17T04:04:24.678Z,100790.06
2022-11-17T04:06:55.649Z,100790.53
2022-11-17T04:09:29.640Z,100776.03
2022-11-17T04:12:18.959Z,100773.19
2022-11-17T04:15:07.349Z,100764.25
2022-11-17T04:17:38.969Z,100763.53
2022-11-17T04:20:10.479Z,100763.66
2022-11-17T04:22:41.055Z,100758.91
2022-11-17T04:25:31.691Z,100750.94
2022-11-17T04:28:21.066Z,100744.09
2022-11-17T04:30:51.481Z,100746.00
2022-11-17T04:33:22.136Z,100737.09
2022-11-17T04:35:52.643Z,100734.28
2022-11-17T04:38:23.432Z,100726.16
2022-11-17T04:41:12.945Z,100716.78
2022-11-17T04:43:44.359Z,100713.53
2022-11-17T04:46:15.265Z,100714.81
2022-11-17T04:48:46.449Z,100711.72
2022-11-17T04:51:18.460Z,100698.19
2022-11-17T04:53:50.031Z,100703.19
2022-11-17T04:56:21.975Z,100693.00
2022-11-17T04:58:53.188Z,100688.91
2022-11-17T05:01:25.197Z,100687.47
2022-11-17T05:03:56.373Z,100685.59
2022-11-17T05:06:27.918Z,100680.19
2022-11-17T05:08:58.490Z,100675.81
2022-11-17T05:11:48.292Z,100676.03
2022-11-17T05:14:22.022Z,100676.66
2022-11-17T05:17:12.018Z,100667.09
2022-11-17T05:19:47.929Z,100663.16
2022-11-17T05:22:38.940Z,100660.91
2022-11-17T05:25:10.161Z,100662.56
2022-11-17T05:27:40.871Z,100659.22
2022-11-17T05:30:12.405Z,100649.50
2022-11-17T05:32:43.229Z,100646.56
2022-11-17T05:35:13.628Z,100646.75
2022-11-17T05:37:44.513Z,100655.72
2022-11-17T05:40:14.851Z,100655.88
2022-11-17T05:42:45.737Z,100645.06
2022-11-17T05:45:16.794Z,100645.47
2022-11-17T05:47:47.407Z,100641.28
2022-11-17T05:50:20.164Z,100637.13
2022-11-17T05:52:50.658Z,100627.56
2022-11-17T05:55:21.631Z,100628.44
2022-11-17T05:57:52.967Z,100619.09
2022-11-17T06:00:23.575Z,100623.47
2022-11-17T06:03:01.172Z,100617.03
2022-11-17T06:05:32.529Z,100620.78
2022-11-17T06:08:03.699Z,100618.47
2022-11-17T06:10:36.051Z,100614.50
2022-11-17T06:13:06.900Z,100613.88
2022-11-17T06:15:38.003Z,100610.31
2022-11-17T06:18:13.151Z,100617.63
2022-11-17T06:20:49.661Z,100618.03
2022-11-17T06:23:22.214Z,100623.19
2022-11-17T06:25:53.199Z,100640.47
2022-11-17T06:28:24.218Z,100651.69
2022-11-17T06:30:55.318Z,100657.41
2022-11-17T06:33:26.971Z,100654.47
2022-11-17T06:35:58.499Z,100652.91
2022-11-17T06:38:30.356Z,100665.56
2022-11-17T06:41:01.026Z,100652.50
2022-11-17T06:43:33.600Z,100643.91
2022-11-17T06:46:06.571Z,100638.63
2022-11-17T06:48:40.987Z,100637.38
2022-11-17T06:51:11.574Z,100633.66
2022-11-17T06:53:42.686Z,100634.44
2022-11-17T06:56:15.008Z,100632.78
2022-11-17T06:58:46.285Z,100635.25
2022-11-17T07:01:19.916Z,100628.16
2022-11-17T07:03:50.576Z,100635.22
2022-11-17T07:06:21.304Z,100622.34
2022-11-17T07:08:52.711Z,100638.56
2022-11-17T07:11:23.078Z,100631.50
2022-11-17T07:13:54.028Z,100624.03
2022-11-17T07:16:24.603Z,100625.06
2022-11-17T07:18:56.216Z,100636.88
2022-11-17T07:21:27.739Z,100629.34
2022-11-17T07:23:58.057Z,100630.22
2022-11-17T07:26:29.281Z,100634.56
2022-11-17T07:28:59.679Z,100642.03
2022-11-17T07:31:30.561Z,100637.06
2022-11-17T07:34:00.956Z,100647.22
2022-11-17T07:36:31.616Z,100637.91
2022-11-17T07:39:02.571Z,100645.00
2022-11-17T07:41:34.080Z,100650.38
2022-11-17T07:44:05.183Z,100651.22
2022-11-17T07:46:36.842Z,100650.38
2022-11-17T07:49:07.476Z,100660.81
2022-11-17T07:51:38.094Z,100652.69
2022-11-17T07:54:08.491Z,100665.19
2022-11-17T07:56:39.112Z,100657.50
2022-11-17T07:59:09.960Z,100668.53
2022-11-17T08:01:41.048Z,100667.47
2022-11-17T08:04:12.640Z,100668.13
2022-11-17T08:06:42.956Z,100675.19
2022-11-17T08:09:15.258Z,100680.59
2022-11-17T08:11:47.214Z,100675.59
2022-11-17T08:14:17.961Z,100679.75
2022-11-17T08:16:48.901Z,100689.78
2022-11-17T08:19:19.309Z,100691.41
2022-11-17T08:21:51.896Z,100694.31
2022-11-17T08:24:22.275Z,100694.56
2022-11-17T08:26:54.644Z,100690.22
2022-11-17T08:29:26.287Z,100684.41
2022-11-17T08:31:56.956Z,100688.53
2022-11-17T08:34:27.311Z,100686.88
2022-11-17T08:36:57.728Z,100672.06
2022-11-17T08:39:28.104Z,100683.91
2022-11-17T08:42:01.324Z,100678.50
2022-11-17T08:44:32.495Z,100689.31
2022-11-17T08:47:04.025Z,100690.16
2022-11-17T08:49:34.858Z,100704.91
2022-11-17T08:52:06.852Z,100708.00
2022-11-17T08:54:37.285Z,100715.47
2022-11-17T08:57:08.264Z,100713.16
2022-11-17T08:59:39.160Z,100721.69
2022-11-17T09:02:09.845Z,100731.13
2022-11-17T09:04:43.009Z,100744.00
2022-11-17T09:07:13.381Z,100755.56
2022-11-17T09:09:44.891Z,100758.16
2022-11-17T09:12:15.626Z,100761.09
2022-11-17T09:14:46.254Z,100759.44
2022-11-17T09:17:17.303Z,100766.50
2022-11-17T09:19:47.622Z,100765.88
2022-11-17T09:22:21.168Z,100773.97
2022-11-17T09:24:51.628Z,100788.28
2022-11-17T09:27:22.369Z,100791.38
2022-11-17T09:29:53.427Z,100807.41
2022-11-17T09:32:23.989Z,100802.25
2022-11-17T09:34:54.821Z,100796.91
2022-11-17T09:37:27.576Z,100801.50
2022-11-17T09:39:58.301Z,100804.44
2022-11-17T09:42:32.564Z,100802.97
2022-11-17T09:45:17.231Z,100798.41
2022-11-17T09:48:34.038Z,100806.91
2022-11-17T09:50:59.156Z,100809.78
2022-11-17T09:53:41.081Z,100815.56
2022-11-17T09:56:13.669Z,100818.84
2022-11-17T09:58:48.208Z,100820.91
2022-11-17T10:01:20.620Z,100831.31
2022-11-17T10:03:52.510Z,100829.63
2022-11-17T10:06:30.902Z,100836.72
2022-11-17T10:09:31.082Z,100840.06
2022-11-17T10:12:22.569Z,100839.97
2022-11-17T10:14:54.720Z,100851.72
2022-11-17T10:17:25.476Z,100849.41
2022-11-17T10:19:58.542Z,100841.00
2022-11-17T10:22:37.449Z,100847.22
2022-11-17T10:25:41.412Z,100862.59
2022-11-17T10:28:28.050Z,100871.53
2022-11-17T10:31:02.088Z,100890.78
2022-11-17T10:33:50.169Z,100890.78
2022-11-17T10:36:33.622Z,100896.56
2022-11-17T10:39:04.237Z,100914.38
2022-11-17T10:41:43.712Z,100914.38
2022-11-17T10:44:26.444Z,100920.13
2022-11-17T10:47:02.394Z,100924.50
2022-11-17T10:49:36.088Z,100928.41
2022-11-17T10:52:19.654Z,100943.94
2022-11-17T10:54:50.778Z,100959.47
2022-11-17T10:57:26.456Z,100954.94
2022-11-17T10:59:58.500Z,100967.41
2022-11-17T11:02:40.350Z,100967.41
2022-11-17T11:05:14.079Z,100981.19
2022-11-17T11:07:46.025Z,100985.72
2022-11-17T11:10:19.630Z,100984.91
2022-11-17T11:13:14.651Z,100977.47
2022-11-17T11:15:46.512Z,100978.19
2022-11-17T11:18:20.913Z,101007.31
2022-11-17T11:21:18.211Z,101008.53
2022-11-17T11:24:15.739Z,101023.44
2022-11-17T11:27:07.233Z,101039.69
2022-11-17T11:29:51.898Z,101022.19
2022-11-17T11:32:54.048Z,101009.06
2022-11-17T11:36:03.893Z,101022.25
2022-11-17T11:38:43.218Z,101006.78
2022-11-17T11:41:22.571Z,101010.16
2022-11-17T11:44:31.584Z,101004.47
2022-11-17T11:47:33.381Z,101008.22
2022-11-17T11:50:25.687Z,101008.56
2022-11-17T11:53:05.075Z,101007.25
2022-11-17T11:55:37.325Z,101004.25
2022-11-17T11:58:19.749Z,101007.81
2022-11-17T12:01:13.037Z,101011.69
2022-11-17T12:04:26.734Z,101005.56
2022-11-17T12:07:08.267Z,101011.03
2022-11-17T12:09:44.536Z,101027.13
2022-11-17T12:12:21.385Z,101023.56
2022-11-17T12:15:20.610Z,101026.38
2022-11-17T12:17:54.392Z,101034.81
2022-11-17T12:20:41.661Z,101033.31
2022-11-17T12:23:30.544Z,101042.88
2022-11-17T12:26:02.373Z,101049.50
2022-11-17T12:28:42.772Z,101053.31
2022-11-17T12:31:26.149Z,101058.72
2022-11-17T12:34:03.475Z,101066.16
2022-11-17T12:36:35.560Z,101065.47
2022-11-17T12:39:09.951Z,101069.19
2022-11-17T12:41:53.436Z,101068.38
2022-11-17T12:44:44.958Z,101073.06
2022-11-17T12:47:31.996Z,101073.06
2022-11-17T12:50:14.183Z,101072.78
2022-11-17T12:53:27.276Z,101077.63
2022-11-17T12:56:06.802Z,101078.84
2022-11-17T12:58:55.525Z,101069.22
2022-11-17T13:01:47.318Z,101074.63
2022-11-17T13:04:49.355Z,101063.81
2022-11-17T13:07:23.655Z,101058.78
2022-11-17T13:09:59.455Z,101057.97
2022-11-17T13:12:34.181Z,101048.72
2022-11-17T13:15:07.349Z,101045.72
2022-11-17T13:17:46.118Z,101042.34
2022-11-17T13:20:28.736Z,101043.69
2022-11-17T13:23:07.659Z,101030.34
2022-11-17T13:25:38.018Z,101037.56
2022-11-17T13:28:29.332Z,101040.28
2022-11-17T13:31:01.512Z,101048.22
2022-11-17T13:33:39.563Z,101044.34
2022-11-17T13:36:18.670Z,101044.19
2022-11-17T13:38:51.524Z,101043.31
2022-11-17T13:41:25.413Z,101054.97
2022-11-17T13:43:56.486Z,101057.81
2022-11-17T13:46:27.391Z,101067.81
2022-11-17T13:48:58.627Z,101063.88
2022-11-17T13:51:43.101Z,101062.41
2022-11-17T13:54:13.943Z,101067.28
2022-11-17T13:56:47.471Z,101068.97
2022-11-17T13:59:32.465Z,101069.81
2022-11-17T14:02:17.956Z,101078.75
2022-11-17T14:05:17.836Z,101089.88
2022-11-17T14:07:49.157Z,101093.63
2022-11-17T14:10:29.068Z,101111.16
2022-11-17T14:13:04.200Z,101116.53
2022-11-17T14:15:40.487Z,101123.13
2022-11-17T14:18:43.098Z,101123.63
2022-11-17T14:21:19.867Z,101123.28
2022-11-17T14:24:04.040Z,101135.28
2022-11-17T14:26:35.084Z,101145.88
2022-11-17T14:29:05.916Z,101151.63
2022-11-17T14:31:36.526Z,101145.06
2022-11-17T14:34:07.568Z,101148.78
2022-11-17T14:36:40.101Z,101143.38
2022-11-17T14:39:16.680Z,101140.84
2022-11-17T14:41:48.396Z,101141.19
2022-11-17T14:44:19.157Z,101135.81
2022-11-17T14:46:49.887Z,101134.13
2022-11-17T14:49:20.452Z,101119.16
2022-11-17T14:51:51.109Z,101115.13
2022-11-17T14:54:21.426Z,101111.97
2022-11-17T14:56:52.041Z,101089.06
2022-11-17T14:59:22.343Z,101084.34
2022-11-17T15:01:54.967Z,101068.88
2022-11-17T15:04:49.361Z,101058.09
2022-11-17T15:07:17.387Z,101044.47
2022-11-17T15:09:48.887Z,101040.09
2022-11-17T15:12:20.594Z,101036.56
2022-11-17T15:14:51.306Z,101024.78
2022-11-17T15:17:21.863Z,101016.84
2022-11-17T15:19:52.765Z,101022.06
2022-11-17T15:22:24.322Z,101011.00
2022-11-17T15:24:57.219Z,100995.16
2022-11-17T15:27:27.830Z,100993.16
2022-11-17T15:29:58.988Z,101002.59
2022-11-17T15:32:29.714Z,100999.22
2022-11-17T15:35:16.026Z,100998.38
2022-11-17T15:37:49.319Z,100990.84
2022-11-17T15:40:20.057Z,100991.84
2022-11-17T15:42:54.801Z,100990.16
2022-11-17T15:45:25.703Z,100987.47
2022-11-17T15:47:56.319Z,100991.19
2022-11-17T15:50:28.080Z,100986.16
2022-11-17T15:53:04.105Z,100984.47
2022-11-17T15:55:38.101Z,100996.06
2022-11-17T15:58:08.752Z,100986.50
2022-11-17T16:00:41.231Z,100991.03
2022-11-17T16:03:11.859Z,100977.75
2022-11-17T16:05:42.464Z,100972.38
2022-11-17T16:08:15.872Z,100963.44
2022-11-17T16:10:46.783Z,100964.63
2022-11-17T16:13:18.146Z,100951.16
2022-11-17T16:15:53.561Z,100945.00
2022-11-17T16:18:24.525Z,100943.44
2022-11-17T16:20:57.873Z,100930.28
2022-11-17T16:23:31.025Z,100933.34
2022-11-17T16:26:03.218Z,100917.53
2022-11-17T16:28:33.819Z,100914.13
2022-11-17T16:31:21.434Z,100903.22
2022-11-17T16:34:02.283Z,100903.38
2022-11-17T16:36:38.070Z,100899.19
2022-11-17T16:39:12.725Z,100886.75
2022-11-17T16:41:46.259Z,100892.13
2022-11-17T16:44:18.734Z,100880.69
2022-11-17T16:46:50.868Z,100880.84
2022-11-17T16:49:22.121Z,100869.25
2022-11-17T16:51:57.172Z,100868.06
2022-11-17T16:54:28.753Z,100864.69
2022-11-17T16:56:59.534Z,100860.31
2022-11-17T16:59:29.753Z,100852.09
2022-11-17T17:02:00.500Z,100851.59
2022-11-17T17:04:31.814Z,100840.00
2022-11-17T17:07:02.383Z,100825.69
2022-11-17T17:09:34.496Z,100829.88
2022-11-17T17:12:06.985Z,100821.31
2022-11-17T17:14:37.920Z,100809.06
2022-11-17T17:17:08.174Z,100816.94
2022-11-17T17:19:39.625Z,100813.22
2022-11-17T17:22:10.219Z,100804.03
2022-11-17T17:24:40.711Z,100798.84
2022-11-17T17:27:11.840Z,100794.72
2022-11-17T17:29:43.885Z,100799.28
2022-11-17T17:32:14.148Z,100808.34
2022-11-17T17:34:44.752Z,100807.34
2022-11-17T17:37:15.256Z,100812.72
2022-11-17T17:39:45.669Z,100807.03
2022-11-17T17:42:16.574Z,100803.00
2022-11-17T17:44:47.036Z,100788.72
2022-11-17T17:47:17.866Z,100785.50
2022-11-17T17:49:48.165Z,100788.19
2022-11-17T17:52:19.883Z,100782.81
2022-11-17T17:54:51.145Z,100778.97
2022-11-17T17:57:29.915Z,100774.44
2022-11-17T18:00:08.135Z,100767.38
2022-11-17T18:02:38.398Z,100770.72
2022-11-17T18:05:09.293Z,100763.03
2022-11-17T18:07:40.187Z,100760.34
2022-11-17T18:10:11.269Z,100759.81
2022-11-17T18:12:45.453Z,100751.75
2022-11-17T18:15:16.327Z,100752.56
2022-11-17T18:17:47.390Z,100752.28
2022-11-17T18:20:18.170Z,100755.97
2022-11-17T18:22:48.669Z,100744.56
2022-11-17T18:25:21.532Z,100744.56
2022-11-17T18:27:53.476Z,100740.84
2022-11-17T18:30:26.782Z,100738.66
2022-11-17T18:33:02.814Z,100734.50
2022-11-17T18:35:35.044Z,100733.16
2022-11-17T18:38:05.545Z,100722.41
2022-11-17T18:40:37.167Z,100725.44
2022-11-17T18:43:07.524Z,100723.22
2022-11-17T18:45:39.334Z,100721.09
2022-11-17T18:48:10.769Z,100720.22
2022-11-17T18:51:17.328Z,100706.47
2022-11-17T18:53:36.181Z,100711.84
2022-11-17T18:56:17.509Z,100709.16
2022-11-17T18:58:48.092Z,100702.97
2022-11-17T19:01:26.293Z,100704.63
2022-11-17T19:03:59.257Z,100706.00
2022-11-17T19:06:30.995Z,100699.41
2022-11-17T19:09:02.212Z,100696.91
2022-11-17T19:11:35.463Z,100698.75
2022-11-17T19:14:06.979Z,100687.16
2022-11-17T19:16:44.847Z,100696.25
2022-11-17T19:19:15.987Z,100684.81
2022-11-17T19:21:49.743Z,100675.75
2022-11-17T19:24:20.244Z,100682.31
2022-11-17T19:26:50.787Z,100676.44
2022-11-17T19:29:22.047Z,100679.28
2022-11-17T19:31:53.612Z,100679.97
2022-11-17T19:34:24.136Z,100682.16
2022-11-17T19:36:54.723Z,100683.00
2022-11-17T19:39:26.301Z,100690.41
2022-11-17T19:41:56.851Z,100694.94
2022-11-17T19:44:29.632Z,100691.25
2022-11-17T19:47:00.914Z,100693.28
2022-11-17T19:49:31.872Z,100698.66
2022-11-17T19:52:02.325Z,100694.28
2022-11-17T19:54:33.218Z,100702.69
2022-11-17T19:57:04.264Z,100702.69
2022-11-17T19:59:34.533Z,100706.19
2022-11-17T20:02:04.898Z,100708.06
2022-11-17T20:04:35.753Z,100715.78
2022-11-17T20:07:06.812Z,100717.81
2022-11-17T20:09:40.643Z,100731.25
2022-11-17T20:12:12.415Z,100735.97
2022-11-17T20:14:43.335Z,100739.31
2022-11-17T20:17:14.067Z,100748.19
2022-11-17T20:19:44.949Z,100753.56
2022-11-17T20:22:18.359Z,100751.53
2022-11-17T20:24:49.291Z,100752.56
2022-11-17T20:27:19.598Z,100755.44
2022-11-17T20:29:50.498Z,100761.47
2022-11-17T20:32:20.877Z,100767.66
2022-11-17T20:34:51.580Z,100770.22
2022-11-17T20:37:23.671Z,100774.91
2022-11-17T20:39:54.052Z,100775.72
2022-11-17T20:42:24.485Z,100780.28
2022-11-17T20:44:55.027Z,100776.59
2022-11-17T20:47:28.393Z,100778.94
2022-11-17T20:49:58.917Z,100771.91
2022-11-17T20:52:29.536Z,100789.03
2022-11-17T20:55:01.810Z,100790.84
2022-11-17T20:57:32.598Z,100800.78
2022-11-17T21:00:02.773Z,100802.81
2022-11-17T21:02:36.779Z,100803.28
2022-11-17T21:05:08.247Z,100799.78
2022-11-17T21:07:39.822Z,100799.78
2022-11-17T21:10:11.123Z,100808.84
2022-11-17T21:12:42.137Z,100807.31
2022-11-17T21:15:13.530Z,100813.22
2022-11-17T21:18:02.218Z,100816.56
2022-11-17T21:20:35.808Z,100812.88
2022-11-17T21:23:06.674Z,100816.56
2022-11-17T21:25:39.492Z,100822.28
2022-11-17T21:28:10.400Z,100825.97
2022-11-17T21:30:43.290Z,100825.31
2022-11-17T21:33:14.113Z,100831.69
2022-11-17T21:35:45.306Z,100834.03
2022-11-17T21:38:18.858Z,100843.59
2022-11-17T21:40:49.259Z,100848.50
2022-11-17T21:43:20.218Z,100853.88
2022-11-17T21:45:50.741Z,100855.53
2022-11-17T21:48:21.384Z,100859.25
2022-11-17T21:50:54.375Z,100872.00
2022-11-17T21:53:25.148Z,100878.22
2022-11-17T21:56:02.481Z,100882.09
2022-11-17T21:58:34.374Z,100885.78
2022-11-17T22:01:10.572Z,100891.97
2022-11-17T22:03:42.281Z,100894.84
2022-11-17T22:06:19.084Z,100895.19
2022-11-17T22:08:50.891Z,100902.22
2022-11-17T22:11:39.319Z,100910.16
2022-11-17T22:14:14.713Z,100912.97
2022-11-17T22:16:50.330Z,100914.66
2022-11-17T22:19:22.293Z,100921.03
2022-11-17T22:21:54.625Z,100932.78
2022-11-17T22:24:25.399Z,100931.13
2022-11-17T22:26:56.232Z,100936.50
2022-11-17T22:29:26.830Z,100936.50
2022-11-17T22:31:57.457Z,100941.19
2022-11-17T22:34:28.296Z,100937.84
2022-11-17T22:36:59.669Z,100939.84
2022-11-17T22:39:30.828Z,100937.16
2022-11-17T22:42:01.205Z,100942.53
2022-11-17T22:44:31.690Z,100942.53
2022-11-17T22:47:03.069Z,100956.31
2022-11-17T22:49:34.336Z,100961.34
2022-11-17T22:52:04.967Z,100963.88
2022-11-17T22:54:36.435Z,100968.72
2022-11-17T22:57:07.465Z,100980.84
2022-11-17T22:59:38.054Z,100986.72
2022-11-17T23:02:08.970Z,100995.59
2022-11-17T23:04:42.239Z,100992.25
2022-11-17T23:07:13.151Z,100984.03
2022-11-17T23:09:43.841Z,100999.28
2022-11-17T23:12:15.661Z,100991.75
2022-11-17T23:14:46.527Z,101001.31
2022-11-17T23:17:19.288Z,100992.91
2022-11-17T23:19:50.265Z,101002.84
2022-11-17T23:22:21.507Z,101002.84
2022-11-17T23:24:52.184Z,101007.22
2022-11-17T23:27:23.491Z,100998.94
2022-11-17T23:29:57.419Z,101004.16
2022-11-17T23:32:28.173Z,101006.34
2022-11-17T23:34:58.991Z,100999.31
2022-11-17T23:37:30.259Z,101005.69
2022-11-17T23:40:00.578Z,101011.06
2022-11-17T23:42:40.103Z,101011.75
2022-11-17T23:45:14.431Z,101017.81
2022-11-17T23:47:45.040Z,101014.28
2022-11-17T23:50:16.956Z,101012.91
2022-11-17T23:52:47.619Z,101014.28
2022-11-17T23:55:19.124Z,101023.53
2022-11-17T23:57:50.534Z,101028.22
